sensor_id;sensor_type;location;lat;lon;timestamp;pressure;altitude;pressure_sealevel;temperature;humidity
22031;BME280;11179;52.106;21.024;2023-06-14T00:01:32;100589.03;;;13.26;73.70
22031;BME280;11179;52.106;21.024;2023-06-14T00:04:00;100589.03;;;13.26;73.56
22031;BME280;11179;52.106;21.024;2023-06-14T00:06:26;100589.88;;;13.26;73.56
22031;BME280;11179;52.106;21.024;2023-06-14T00:08:51;100583.00;;;13.29;73.61
22031;BME280;11179;52.106;21.024;2023-06-14T00:11:17;100589.34;;;13.29;73.73
22031;BME280;11179;52.106;21.024;2023-06-14T00:13:42;100587.69;;;13.28;73.61
22031;BME280;11179;52.106;21.024;2023-06-14T00:16:08;100585.75;;;13.29;73.60
22031;BME280;11179;52.106;21.024;2023-06-14T00:18:33;100591.28;;;13.29;73.65
22031;BME280;11179;52.106;21.024;2023-06-14T00:20:59;100595.69;;;13.30;73.56
22031;BME280;11179;52.106;21.024;2023-06-14T00:23:24;100588.22;;;13.25;73.60
22031;BME280;11179;52.106;21.024;2023-06-14T00:25:50;100587.13;;;13.26;73.61
22031;BME280;11179;52.106;21.024;2023-06-14T00:28:15;100587.13;;;13.26;73.35
22031;BME280;11179;52.106;21.024;2023-06-14T00:30:41;100595.94;;;13.23;73.30
22031;BME280;11179;52.106;21.024;2023-06-14T00:33:06;100592.91;;;13.25;73.49
22031;BME280;11179;52.106;21.024;2023-06-14T00:35:32;100588.47;;;13.24;73.21
22031;BME280;11179;52.106;21.024;2023-06-14T00:37:57;100587.34;;;13.20;73.43
22031;BME280;11179;52.106;21.024;2023-06-14T00:40:22;100589.00;;;13.16;73.42
22031;BME280;11179;52.106;21.024;2023-06-14T00:42:48;100582.09;;;13.13;73.47
22031;BME280;11179;52.106;21.024;2023-06-14T00:45:13;100585.09;;;13.07;73.36
22031;BME280;11179;52.106;21.024;2023-06-14T00:47:41;100581.78;;;13.05;73.77
22031;BME280;11179;52.106;21.024;2023-06-14T00:50:07;100585.94;;;13.07;73.85
22031;BME280;11179;52.106;21.024;2023-06-14T00:52:34;100584.84;;;13.08;73.83
22031;BME280;11179;52.106;21.024;2023-06-14T00:55:00;100584.31;;;13.11;73.86
22031;BME280;11179;52.106;21.024;2023-06-14T00:57:26;100586.53;;;13.14;73.92
22031;BME280;11179;52.106;21.024;2023-06-14T00:59:51;100589.84;;;13.16;74.00
22031;BME280;11179;52.106;21.024;2023-06-14T01:02:17;100586.53;;;13.19;73.77
22031;BME280;11179;52.106;21.024;2023-06-14T01:04:47;100590.94;;;13.20;73.93
22031;BME280;11179;52.106;21.024;2023-06-14T01:08:07;100587.91;;;13.22;73.94
22031;BME280;11179;52.106;21.024;2023-06-14T01:12:52;100588.75;;;13.17;73.99
22031;BME280;11179;52.106;21.024;2023-06-14T01:15:22;100586.53;;;13.19;73.99
22031;BME280;11179;52.106;21.024;2023-06-14T01:17:49;100581.31;;;13.23;73.89
22031;BME280;11179;52.106;21.024;2023-06-14T01:20:17;100586.53;;;13.19;73.89
22031;BME280;11179;52.106;21.024;2023-06-14T01:22:54;100581.00;;;13.19;74.14
22031;BME280;11179;52.106;21.024;2023-06-14T01:25:20;100579.34;;;13.18;74.07
22031;BME280;11179;52.106;21.024;2023-06-14T01:27:53;100575.50;;;13.19;74.20
22031;BME280;11179;52.106;21.024;2023-06-14T01:30:20;100576.59;;;13.18;74.16
22031;BME280;11179;52.106;21.024;2023-06-14T01:32:47;100581.56;;;13.21;74.12
22031;BME280;11179;52.106;21.024;2023-06-14T01:35:12;100577.44;;;13.19;74.02
22031;BME280;11179;52.106;21.024;2023-06-14T01:37:39;100583.78;;;13.14;74.09
22031;BME280;11179;52.106;21.024;2023-06-14T01:40:07;100574.63;;;13.09;74.11
22031;BME280;11179;52.106;21.024;2023-06-14T01:42:36;100572.16;;;13.07;74.10
22031;BME280;11179;52.106;21.024;2023-06-14T01:45:04;100576.84;;;13.12;73.99
22031;BME280;11179;52.106;21.024;2023-06-14T01:47:31;100566.38;;;13.09;73.90
22031;BME280;11179;52.106;21.024;2023-06-14T01:49:56;100567.72;;;13.06;74.09
22031;BME280;11179;52.106;21.024;2023-06-14T01:52:22;100564.16;;;13.06;74.19
22031;BME280;11179;52.106;21.024;2023-06-14T01:54:49;100556.16;;;13.04;74.20
22031;BME280;11179;52.106;21.024;2023-06-14T01:57:15;100554.50;;;13.03;74.06
22031;BME280;11179;52.106;21.024;2023-06-14T01:59:40;100565.81;;;13.07;74.29
22031;BME280;11179;52.106;21.024;2023-06-14T02:02:05;100563.06;;;13.07;74.09
22031;BME280;11179;52.106;21.024;2023-06-14T02:04:31;100552.59;;;13.09;74.11
22031;BME280;11179;52.106;21.024;2023-06-14T02:06:56;100549.03;;;13.13;74.20
22031;BME280;11179;52.106;21.024;2023-06-14T02:09:21;100551.50;;;13.10;74.28
22031;BME280;11179;52.106;21.024;2023-06-14T02:11:47;100560.03;;;13.08;74.26
22031;BME280;11179;52.106;21.024;2023-06-14T02:14:12;100558.38;;;13.07;74.36
22031;BME280;11179;52.106;21.024;2023-06-14T02:16:38;100561.41;;;13.11;74.18
22031;BME280;11179;52.106;21.024;2023-06-14T02:19:04;100554.53;;;13.13;74.20
22031;BME280;11179;52.106;21.024;2023-06-14T02:21:30;100552.06;;;13.12;74.16
22031;BME280;11179;52.106;21.024;2023-06-14T02:23:55;100557.84;;;13.15;74.36
22031;BME280;11179;52.106;21.024;2023-06-14T02:26:21;100559.53;;;13.16;74.21
22031;BME280;11179;52.106;21.024;2023-06-14T02:28:47;100560.63;;;13.15;74.10
22031;BME280;11179;52.106;21.024;2023-06-14T02:31:13;100561.44;;;13.16;74.14
22031;BME280;11179;52.106;21.024;2023-06-14T02:33:38;100565.03;;;13.16;74.21
22031;BME280;11179;52.106;21.024;2023-06-14T02:36:04;100561.19;;;13.17;74.21
22031;BME280;11179;52.106;21.024;2023-06-14T02:38:30;100559.53;;;13.16;74.27
22031;BME280;11179;52.106;21.024;2023-06-14T02:40:55;100559.25;;;13.18;74.15
22031;BME280;11179;52.106;21.024;2023-06-14T02:43:21;100549.59;;;13.20;73.99
22031;BME280;11179;52.106;21.024;2023-06-14T02:45:46;100551.25;;;13.21;74.10
22031;BME280;11179;52.106;21.024;2023-06-14T02:48:11;100549.31;;;13.22;74.14
22031;BME280;11179;52.106;21.024;2023-06-14T02:50:36;100541.59;;;13.24;74.10
22031;BME280;11179;52.106;21.024;2023-06-14T02:53:02;100543.00;;;13.26;74.06
22031;BME280;11179;52.106;21.024;2023-06-14T02:55:28;100548.50;;;13.21;74.09
22031;BME280;11179;52.106;21.024;2023-06-14T02:57:53;100544.63;;;13.17;74.07
22031;BME280;11179;52.106;21.024;2023-06-14T03:00:19;100539.94;;;13.18;73.88
22031;BME280;11179;52.106;21.024;2023-06-14T03:02:44;100539.38;;;13.21;74.06
22031;BME280;11179;52.106;21.024;2023-06-14T03:05:11;100539.69;;;13.24;73.90
22031;BME280;11179;52.106;21.024;2023-06-14T03:07:36;100537.47;;;13.26;73.91
22031;BME280;11179;52.106;21.024;2023-06-14T03:10:07;100537.22;;;13.28;74.19
22031;BME280;11179;52.106;21.024;2023-06-14T03:12:33;100541.38;;;13.30;73.90
22031;BME280;11179;52.106;21.024;2023-06-14T03:14:58;100535.03;;;13.30;74.02
22031;BME280;11179;52.106;21.024;2023-06-14T03:17:27;100541.06;;;13.32;73.63
22031;BME280;11179;52.106;21.024;2023-06-14T03:19:55;100539.69;;;13.34;73.70
22031;BME280;11179;52.106;21.024;2023-06-14T03:22:20;100543.56;;;13.39;73.71
22031;BME280;11179;52.106;21.024;2023-06-14T03:24:47;100545.78;;;13.42;73.67
22031;BME280;11179;52.106;21.024;2023-06-14T03:27:13;100546.34;;;13.39;73.49
22031;BME280;11179;52.106;21.024;2023-06-14T03:29:39;100535.59;;;13.42;73.68
22031;BME280;11179;52.106;21.024;2023-06-14T03:32:05;100543.84;;;13.47;73.69
22031;BME280;11179;52.106;21.024;2023-06-14T03:34:30;100555.75;;;13.53;73.53
22031;BME280;11179;52.106;21.024;2023-06-14T03:36:56;100546.97;;;13.56;73.49
22031;BME280;11179;52.106;21.024;2023-06-14T03:39:21;100552.19;;;13.62;73.49
22031;BME280;11179;52.106;21.024;2023-06-14T03:41:47;100535.63;;;13.62;73.37
22031;BME280;11179;52.106;21.024;2023-06-14T03:44:15;100538.69;;;13.66;73.18
22031;BME280;11179;52.106;21.024;2023-06-14T03:46:41;100547.50;;;13.73;73.12
22031;BME280;11179;52.106;21.024;2023-06-14T03:49:10;100544.19;;;13.76;72.86
22031;BME280;11179;52.106;21.024;2023-06-14T03:51:36;100544.50;;;13.80;72.92
22031;BME280;11179;52.106;21.024;2023-06-14T03:54:01;100546.41;;;13.79;72.98
22031;BME280;11179;52.106;21.024;2023-06-14T03:56:27;100556.09;;;13.92;72.97
22031;BME280;11179;52.106;21.024;2023-06-14T03:58:52;100546.69;;;14.03;72.72
22031;BME280;11179;52.106;21.024;2023-06-14T04:01:17;100550.81;;;14.16;72.57
22031;BME280;11179;52.106;21.024;2023-06-14T04:03:43;100548.06;;;14.21;72.11
22031;BME280;11179;52.106;21.024;2023-06-14T04:06:08;100546.94;;;14.27;71.69
22031;BME280;11179;52.106;21.024;2023-06-14T04:08:34;100550.78;;;14.46;71.58
22031;BME280;11179;52.106;21.024;2023-06-14T04:11:00;100551.84;;;14.65;71.55
22031;BME280;11179;52.106;21.024;2023-06-14T04:13:26;100557.31;;;14.86;70.85
22031;BME280;11179;52.106;21.024;2023-06-14T04:15:51;100556.50;;;14.90;70.65
22031;BME280;11179;52.106;21.024;2023-06-14T04:18:16;100556.44;;;14.95;70.49
22031;BME280;11179;52.106;21.024;2023-06-14T04:20:43;100550.91;;;15.00;70.32
22031;BME280;11179;52.106;21.024;2023-06-14T04:23:17;100553.69;;;15.00;69.88
22031;BME280;11179;52.106;21.024;2023-06-14T04:25:45;100547.88;;;14.92;69.94
22031;BME280;11179;52.106;21.024;2023-06-14T04:28:11;100545.94;;;15.02;69.85
22031;BME280;11179;52.106;21.024;2023-06-14T04:30:37;100552.53;;;15.06;69.81
22031;BME280;11179;52.106;21.024;2023-06-14T04:33:04;100548.38;;;15.09;69.56
22031;BME280;11179;52.106;21.024;2023-06-14T04:35:31;100545.88;;;15.13;69.31
22031;BME280;11179;52.106;21.024;2023-06-14T04:38:04;100540.63;;;15.11;69.15
22031;BME280;11179;52.106;21.024;2023-06-14T04:40:33;100550.84;;;15.10;69.06
22031;BME280;11179;52.106;21.024;2023-06-14T04:42:59;100547.28;;;15.05;69.10
22031;BME280;11179;52.106;21.024;2023-06-14T04:45:24;100540.69;;;15.01;69.07
22031;BME280;11179;52.106;21.024;2023-06-14T04:47:56;100547.88;;;15.02;69.10
22031;BME280;11179;52.106;21.024;2023-06-14T04:50:22;100537.38;;;14.99;69.02
22031;BME280;11179;52.106;21.024;2023-06-14T04:52:47;100531.56;;;14.95;69.09
22031;BME280;11179;52.106;21.024;2023-06-14T04:55:16;100546.22;;;15.01;69.07
22031;BME280;11179;52.106;21.024;2023-06-14T04:57:41;100556.44;;;15.00;68.98
22031;BME280;11179;52.106;21.024;2023-06-14T05:00:07;100557.56;;;14.99;68.94
22031;BME280;11179;52.106;21.024;2023-06-14T05:02:34;100551.75;;;15.01;68.84
22031;BME280;11179;52.106;21.024;2023-06-14T05:05:00;100548.97;;;15.01;69.09
22031;BME280;11179;52.106;21.024;2023-06-14T05:07:26;100555.06;;;15.03;69.07
22031;BME280;11179;52.106;21.024;2023-06-14T05:09:52;100555.06;;;15.03;69.01
22031;BME280;11179;52.106;21.024;2023-06-14T05:12:17;100559.75;;;15.02;69.07
22031;BME280;11179;52.106;21.024;2023-06-14T05:14:43;100553.63;;;15.05;68.81
22031;BME280;11179;52.106;21.024;2023-06-14T05:17:08;100568.28;;;15.11;68.78
22031;BME280;11179;52.106;21.024;2023-06-14T05:19:34;100557.78;;;15.08;68.60
22031;BME280;11179;52.106;21.024;2023-06-14T05:22:00;100559.69;;;15.18;68.60
22031;BME280;11179;52.106;21.024;2023-06-14T05:24:25;100559.34;;;15.29;68.30
22031;BME280;11179;52.106;21.024;2023-06-14T05:26:50;100558.44;;;15.39;68.02
22031;BME280;11179;52.106;21.024;2023-06-14T05:29:16;100559.00;;;15.41;67.90
22031;BME280;11179;52.106;21.024;2023-06-14T05:31:41;100555.13;;;15.37;67.98
22031;BME280;11179;52.106;21.024;2023-06-14T05:34:06;100562.06;;;15.34;68.10
22031;BME280;11179;52.106;21.024;2023-06-14T05:36:32;100556.84;;;15.28;67.72
22031;BME280;11179;52.106;21.024;2023-06-14T05:38:57;100561.63;;;15.17;67.81
22031;BME280;11179;52.106;21.024;2023-06-14T05:41:24;100570.22;;;15.10;67.86
22031;BME280;11179;52.106;21.024;2023-06-14T05:43:51;100571.88;;;15.06;67.92
22031;BME280;11179;52.106;21.024;2023-06-14T05:46:16;100565.25;;;15.07;67.86
22031;BME280;11179;52.106;21.024;2023-06-14T05:48:47;100558.28;;;15.20;67.70
22031;BME280;11179;52.106;21.024;2023-06-14T05:51:12;100560.38;;;15.43;67.60
22031;BME280;11179;52.106;21.024;2023-06-14T05:53:37;100559.53;;;15.43;67.19
22031;BME280;11179;52.106;21.024;2023-06-14T05:56:03;100567.50;;;15.50;66.96
22031;BME280;11179;52.106;21.024;2023-06-14T05:58:28;100558.13;;;15.45;66.77
22031;BME280;11179;52.106;21.024;2023-06-14T06:00:53;100555.34;;;15.45;67.01
22031;BME280;11179;52.106;21.024;2023-06-14T06:03:19;100559.75;;;15.52;66.93
22031;BME280;11179;52.106;21.024;2023-06-14T06:05:44;100545.94;;;15.46;66.94
22031;BME280;11179;52.106;21.024;2023-06-14T06:08:09;100556.91;;;15.62;66.99
22031;BME280;11179;52.106;21.024;2023-06-14T06:10:35;100559.41;;;15.68;66.69
22031;BME280;11179;52.106;21.024;2023-06-14T06:13:00;100553.50;;;15.80;66.61
22031;BME280;11179;52.106;21.024;2023-06-14T06:15:26;100572.75;;;16.29;66.31
22031;BME280;11179;52.106;21.024;2023-06-14T06:17:51;100566.88;;;16.89;65.34
22031;BME280;11179;52.106;21.024;2023-06-14T06:20:16;100562.06;;;17.18;64.08
22031;BME280;11179;52.106;21.024;2023-06-14T06:22:42;100556.72;;;17.83;63.21
22031;BME280;11179;52.106;21.024;2023-06-14T06:25:08;100558.31;;;18.35;62.21
22031;BME280;11179;52.106;21.024;2023-06-14T06:27:34;100554.28;;;18.27;60.78
22031;BME280;11179;52.106;21.024;2023-06-14T06:30:01;100555.47;;;18.08;61.06
22031;BME280;11179;52.106;21.024;2023-06-14T06:32:26;100560.88;;;17.99;61.38
22031;BME280;11179;52.106;21.024;2023-06-14T06:34:52;100561.94;;;18.03;61.17
22031;BME280;11179;52.106;21.024;2023-06-14T06:37:17;100569.13;;;18.04;60.67
22031;BME280;11179;52.106;21.024;2023-06-14T06:39:43;100566.44;;;17.99;60.78
22031;BME280;11179;52.106;21.024;2023-06-14T06:42:08;100566.44;;;17.99;60.74
22031;BME280;11179;52.106;21.024;2023-06-14T06:44:34;100558.09;;;17.99;61.15
22031;BME280;11179;52.106;21.024;2023-06-14T06:46:59;100566.78;;;18.11;60.74
22031;BME280;11179;52.106;21.024;2023-06-14T06:49:24;100565.13;;;17.97;60.20
22031;BME280;11179;52.106;21.024;2023-06-14T06:52:03;100568.69;;;18.48;59.03
22031;BME280;11179;52.106;21.024;2023-06-14T06:54:29;100576.94;;;18.81;57.65
22031;BME280;11179;52.106;21.024;2023-06-14T06:56:54;100576.13;;;18.80;57.11
22031;BME280;11179;52.106;21.024;2023-06-14T06:59:20;100575.09;;;18.90;57.02
22031;BME280;11179;52.106;21.024;2023-06-14T07:01:46;100569.13;;;18.83;56.37
22031;BME280;11179;52.106;21.024;2023-06-14T07:04:12;100586.94;;;18.68;56.44
22031;BME280;11179;52.106;21.024;2023-06-14T07:06:37;100583.50;;;18.57;56.54
22031;BME280;11179;52.106;21.024;2023-06-14T07:09:03;100591.81;;;18.44;56.46
22031;BME280;11179;52.106;21.024;2023-06-14T07:11:30;100597.63;;;18.28;57.17
22031;BME280;11179;52.106;21.024;2023-06-14T07:13:55;100586.78;;;18.46;56.95
22031;BME280;11179;52.106;21.024;2023-06-14T07:16:21;100592.59;;;18.63;56.17
22031;BME280;11179;52.106;21.024;2023-06-14T07:18:47;100599.34;;;18.43;56.33
22031;BME280;11179;52.106;21.024;2023-06-14T07:21:12;100593.38;;;18.36;56.36
22031;BME280;11179;52.106;21.024;2023-06-14T07:23:37;100600.66;;;18.13;56.80
22031;BME280;11179;52.106;21.024;2023-06-14T07:26:02;100591.19;;;18.14;56.72
22031;BME280;11179;52.106;21.024;2023-06-14T07:28:28;100603.66;;;18.17;56.77
22031;BME280;11179;52.106;21.024;2023-06-14T07:30:53;100601.28;;;18.10;56.80
22031;BME280;11179;52.106;21.024;2023-06-14T07:33:18;100605.84;;;18.01;56.61
22031;BME280;11179;52.106;21.024;2023-06-14T07:35:44;100592.06;;;17.96;57.00
22031;BME280;11179;52.106;21.024;2023-06-14T07:38:10;100605.78;;;18.06;56.88
22031;BME280;11179;52.106;21.024;2023-06-14T07:40:36;100600.41;;;17.96;56.86
22031;BME280;11179;52.106;21.024;2023-06-14T07:43:01;100594.28;;;18.13;56.58
22031;BME280;11179;52.106;21.024;2023-06-14T07:45:27;100600.69;;;18.27;56.56
22031;BME280;11179;52.106;21.024;2023-06-14T07:47:52;100602.66;;;18.26;56.72
22031;BME280;11179;52.106;21.024;2023-06-14T07:50:18;100596.97;;;18.18;56.85
22031;BME280;11179;52.106;21.024;2023-06-14T07:52:43;100600.66;;;18.13;56.84
22031;BME280;11179;52.106;21.024;2023-06-14T07:55:09;100599.22;;;18.16;56.72
22031;BME280;11179;52.106;21.024;2023-06-14T07:57:34;100610.31;;;18.35;56.66
22031;BME280;11179;52.106;21.024;2023-06-14T08:00:00;100609.44;;;18.53;56.73
22031;BME280;11179;52.106;21.024;2023-06-14T08:02:25;100604.63;;;18.58;56.65
22031;BME280;11179;52.106;21.024;2023-06-14T08:04:51;100611.00;;;18.45;56.36
22031;BME280;11179;52.106;21.024;2023-06-14T08:07:17;100603.28;;;18.56;56.09
22031;BME280;11179;52.106;21.024;2023-06-14T08:09:42;100609.09;;;18.73;55.88
22031;BME280;11179;52.106;21.024;2023-06-14T08:12:08;100613.63;;;18.96;55.88
22031;BME280;11179;52.106;21.024;2023-06-14T08:14:35;100611.91;;;19.01;55.32
22031;BME280;11179;52.106;21.024;2023-06-14T08:17:00;100614.16;;;18.98;55.06
22031;BME280;11179;52.106;21.024;2023-06-14T08:19:26;100613.03;;;19.13;55.24
22031;BME280;11179;52.106;21.024;2023-06-14T08:21:51;100619.22;;;19.51;54.60
22031;BME280;11179;52.106;21.024;2023-06-14T08:24:16;100602.44;;;19.79;54.12
22031;BME280;11179;52.106;21.024;2023-06-14T08:26:42;100600.72;;;20.05;53.88
22031;BME280;11179;52.106;21.024;2023-06-14T08:29:08;100608.31;;;20.35;53.43
22031;BME280;11179;52.106;21.024;2023-06-14T08:31:33;100605.91;;;20.43;52.92
22031;BME280;11179;52.106;21.024;2023-06-14T08:33:59;100599.06;;;20.49;52.54
22031;BME280;11179;52.106;21.024;2023-06-14T08:36:24;100597.63;;;20.60;51.80
22031;BME280;11179;52.106;21.024;2023-06-14T08:38:50;100594.34;;;20.58;51.37
22031;BME280;11179;52.106;21.024;2023-06-14T08:41:20;100592.09;;;20.68;52.06
22031;BME280;11179;52.106;21.024;2023-06-14T08:43:47;100600.09;;;20.92;51.31
22031;BME280;11179;52.106;21.024;2023-06-14T08:46:12;100590.78;;;21.05;50.79
22031;BME280;11179;52.106;21.024;2023-06-14T08:48:41;100589.03;;;21.18;50.55
22031;BME280;11179;52.106;21.024;2023-06-14T08:51:09;100596.19;;;21.41;49.47
22031;BME280;11179;52.106;21.024;2023-06-14T08:53:35;100584.19;;;21.50;49.39
22031;BME280;11179;52.106;21.024;2023-06-14T08:56:08;100590.47;;;21.64;48.76
22031;BME280;11179;52.106;21.024;2023-06-14T08:58:41;100579.31;;;21.81;47.88
22031;BME280;11179;52.106;21.024;2023-06-14T09:01:11;100588.03;;;22.05;48.19
22031;BME280;11179;52.106;21.024;2023-06-14T09:03:41;100577.56;;;22.66;47.69
22031;BME280;11179;52.106;21.024;2023-06-14T09:06:07;100571.00;;;22.54;46.67
22031;BME280;11179;52.106;21.024;2023-06-14T09:08:34;100583.41;;;22.27;46.09
22031;BME280;11179;52.106;21.024;2023-06-14T09:11:01;100589.97;;;22.13;46.08
22031;BME280;11179;52.106;21.024;2023-06-14T09:13:27;100586.22;;;22.01;46.18
22031;BME280;11179;52.106;21.024;2023-06-14T09:15:52;100582.75;;;22.21;45.48
22031;BME280;11179;52.106;21.024;2023-06-14T09:18:18;100585.53;;;22.21;45.44
22031;BME280;11179;52.106;21.024;2023-06-14T09:20:45;100585.81;;;22.54;45.29
22031;BME280;11179;52.106;21.024;2023-06-14T09:23:12;100586.66;;;22.55;44.59
22031;BME280;11179;52.106;21.024;2023-06-14T09:25:42;100577.00;;;22.81;44.56
22031;BME280;11179;52.106;21.024;2023-06-14T09:28:08;100587.50;;;22.46;44.13
22031;BME280;11179;52.106;21.024;2023-06-14T09:30:34;100581.44;;;22.82;43.59
22031;BME280;11179;52.106;21.024;2023-06-14T09:32:59;100591.25;;;23.06;43.59
22031;BME280;11179;52.106;21.024;2023-06-14T09:35:25;100585.31;;;23.37;43.77
22031;BME280;11179;52.106;21.024;2023-06-14T09:37:55;100580.59;;;23.29;42.95
22031;BME280;11179;52.106;21.024;2023-06-14T09:40:21;100579.31;;;23.17;43.26
22031;BME280;11179;52.106;21.024;2023-06-14T09:42:47;100590.34;;;23.23;42.74
22031;BME280;11179;52.106;21.024;2023-06-14T09:45:13;100584.81;;;23.05;43.49
22031;BME280;11179;52.106;21.024;2023-06-14T09:47:39;100581.88;;;23.31;43.25
22031;BME280;11179;52.106;21.024;2023-06-14T09:50:04;100583.84;;;23.31;42.65
22031;BME280;11179;52.106;21.024;2023-06-14T09:52:31;100584.53;;;22.98;42.98
22031;BME280;11179;52.106;21.024;2023-06-14T09:54:59;100584.06;;;23.26;42.38
22031;BME280;11179;52.106;21.024;2023-06-14T09:57:25;100572.31;;;23.32;42.53
22031;BME280;11179;52.106;21.024;2023-06-14T09:59:57;100572.53;;;23.77;42.72
22031;BME280;11179;52.106;21.024;2023-06-14T10:02:36;100557.47;;;24.03;42.42
22031;BME280;11179;52.106;21.024;2023-06-14T10:05:07;100557.84;;;24.34;42.24
22031;BME280;11179;52.106;21.024;2023-06-14T10:08:10;100558.13;;;24.66;41.67
22031;BME280;11179;52.106;21.024;2023-06-14T10:10:35;100569.63;;;24.73;40.92
22031;BME280;11179;52.106;21.024;2023-06-14T10:13:03;100575.94;;;24.82;39.92
22031;BME280;11179;52.106;21.024;2023-06-14T10:15:39;100574.78;;;24.83;39.65
22031;BME280;11179;52.106;21.024;2023-06-14T10:18:09;100569.50;;;24.81;39.60
22031;BME280;11179;52.106;21.024;2023-06-14T10:20:47;100573.66;;;24.96;39.33
22031;BME280;11179;52.106;21.024;2023-06-14T10:23:19;100576.78;;;25.31;38.05
22031;BME280;11179;52.106;21.024;2023-06-14T10:25:50;100574.09;;;25.59;38.30
22031;BME280;11179;52.106;21.024;2023-06-14T10:28:20;100571.16;;;25.31;37.49
22031;BME280;11179;52.106;21.024;2023-06-14T10:33:29;100574.13;;;25.10;37.70
22031;BME280;11179;52.106;21.024;2023-06-14T10:36:24;100572.00;;;25.31;37.55
22031;BME280;11179;52.106;21.024;2023-06-14T10:41:34;100568.94;;;24.76;37.47
22031;BME280;11179;52.106;21.024;2023-06-14T10:46:39;100556.38;;;23.95;37.47
22031;BME280;11179;52.106;21.024;2023-06-14T10:49:04;100559.13;;;23.83;37.89
22031;BME280;11179;52.106;21.024;2023-06-14T10:51:38;100554.22;;;23.80;38.32
22031;BME280;11179;52.106;21.024;2023-06-14T10:54:12;100558.94;;;23.58;37.61
22031;BME280;11179;52.106;21.024;2023-06-14T10:56:47;100558.91;;;23.17;38.00
22031;BME280;11179;52.106;21.024;2023-06-14T10:59:14;100555.31;;;22.70;38.52
22031;BME280;11179;52.106;21.024;2023-06-14T11:02:04;100554.66;;;22.64;39.20
22031;BME280;11179;52.106;21.024;2023-06-14T11:04:50;100545.91;;;22.74;39.90
22031;BME280;11179;52.106;21.024;2023-06-14T11:10:09;100553.84;;;22.64;39.35
22031;BME280;11179;52.106;21.024;2023-06-14T11:12:36;100543.38;;;22.43;38.86
22031;BME280;11179;52.106;21.024;2023-06-14T11:15:02;100561.22;;;21.96;39.61
22031;BME280;11179;52.106;21.024;2023-06-14T11:17:28;100561.34;;;21.39;40.52
22031;BME280;11179;52.106;21.024;2023-06-14T11:20:11;100569.13;;;21.02;41.81
22031;BME280;11179;52.106;21.024;2023-06-14T11:22:44;100573.31;;;20.83;42.30
22031;BME280;11179;52.106;21.024;2023-06-14T11:25:14;100564.69;;;20.70;43.08
22031;BME280;11179;52.106;21.024;2023-06-14T11:27:42;100569.03;;;20.77;43.46
22031;BME280;11179;52.106;21.024;2023-06-14T11:30:08;100555.91;;;20.55;43.93
22031;BME280;11179;52.106;21.024;2023-06-14T11:32:35;100572.81;;;20.50;44.53
22031;BME280;11179;52.106;21.024;2023-06-14T11:35:02;100565.25;;;20.19;44.67
22031;BME280;11179;52.106;21.024;2023-06-14T11:37:28;100573.72;;;20.14;45.11
22031;BME280;11179;52.106;21.024;2023-06-14T11:39:58;100567.59;;;20.03;45.23
22031;BME280;11179;52.106;21.024;2023-06-14T11:42:26;100566.81;;;20.12;45.93
22031;BME280;11179;52.106;21.024;2023-06-14T11:44:53;100568.63;;;20.38;45.53
22031;BME280;11179;52.106;21.024;2023-06-14T11:47:18;100567.69;;;20.74;45.30
22031;BME280;11179;52.106;21.024;2023-06-14T11:49:43;100563.88;;;20.70;45.49
22031;BME280;11179;52.106;21.024;2023-06-14T11:52:09;100564.50;;;20.67;44.91
22031;BME280;11179;52.106;21.024;2023-06-14T11:54:37;100560.69;;;20.85;45.02
22031;BME280;11179;52.106;21.024;2023-06-14T11:57:04;100560.75;;;21.02;44.21
22031;BME280;11179;52.106;21.024;2023-06-14T11:59:30;100556.25;;;20.84;43.60
22031;BME280;11179;52.106;21.024;2023-06-14T12:01:56;100554.50;;;20.66;43.16
22031;BME280;11179;52.106;21.024;2023-06-14T12:04:26;100558.16;;;20.75;42.87
22031;BME280;11179;52.106;21.024;2023-06-14T12:06:52;100549.22;;;20.64;43.23
22031;BME280;11179;52.106;21.024;2023-06-14T12:09:18;100549.66;;;20.80;43.21
22031;BME280;11179;52.106;21.024;2023-06-14T12:11:45;100550.75;;;21.01;42.90
22031;BME280;11179;52.106;21.024;2023-06-14T12:14:10;100547.56;;;20.86;41.85
22031;BME280;11179;52.106;21.024;2023-06-14T12:16:43;100546.94;;;20.97;42.03
22031;BME280;11179;52.106;21.024;2023-06-14T12:21:38;100539.94;;;21.26;41.61
22031;BME280;11179;52.106;21.024;2023-06-14T12:24:06;100540.63;;;21.40;41.07
22031;BME280;11179;52.106;21.024;2023-06-14T12:26:32;100543.81;;;21.56;41.08
22031;BME280;11179;52.106;21.024;2023-06-14T12:28:58;100523.25;;;21.77;41.59
22031;BME280;11179;52.106;21.024;2023-06-14T12:31:24;100523.84;;;22.26;41.26
22031;BME280;11179;52.106;21.024;2023-06-14T12:33:49;100532.31;;;22.56;40.47
22031;BME280;11179;52.106;21.024;2023-06-14T12:36:15;100535.28;;;22.50;39.88
22031;BME280;11179;52.106;21.024;2023-06-14T12:38:42;100528.66;;;21.91;39.23
22031;BME280;11179;52.106;21.024;2023-06-14T12:41:07;100543.25;;;21.45;40.05
22031;BME280;11179;52.106;21.024;2023-06-14T12:43:33;100523.34;;;21.21;40.44
22031;BME280;11179;52.106;21.024;2023-06-14T12:45:59;100515.50;;;21.40;40.13
22031;BME280;11179;52.106;21.024;2023-06-14T12:48:24;100523.25;;;21.77;39.84
22031;BME280;11179;52.106;21.024;2023-06-14T12:50:49;100522.25;;;21.73;39.12
22031;BME280;11179;52.106;21.024;2023-06-14T12:53:15;100521.59;;;21.59;38.81
22031;BME280;11179;52.106;21.024;2023-06-14T12:55:40;100522.91;;;21.62;38.25